createdAt,value
2023-03-02T00:01:24.375Z,94.38
2023-03-02T00:03:51.205Z,94.33
2023-03-02T00:06:18.222Z,95.09
2023-03-02T00:08:45.996Z,95.38
2023-03-02T00:11:15.693Z,95.73
2023-03-02T00:13:43.455Z,95.77
2023-03-02T00:16:10.101Z,96.66
2023-03-02T00:18:36.612Z,96.39
2023-03-02T00:21:03.225Z,96.56
2023-03-02T00:23:29.877Z,96.69
2023-03-02T00:25:56.399Z,96.86
2023-03-02T00:28:22.847Z,97.68
2023-03-02T00:30:49.297Z,96.97
2023-03-02T00:33:15.784Z,97.53
2023-03-02T00:35:42.460Z,98.11
2023-03-02T00:38:09.284Z,98.80
2023-03-02T00:40:36.495Z,98.73
2023-03-02T00:43:03.101Z,99.30
2023-03-02T00:45:29.960Z,100.00
2023-03-02T00:47:56.481Z,100.00
2023-03-02T00:50:23.071Z,99.78
2023-03-02T00:52:49.592Z,100.00
2023-03-02T00:55:16.195Z,100.00
2023-03-02T00:57:42.721Z,100.00
2023-03-02T01:00:09.700Z,100.00
2023-03-02T01:02:39.062Z,100.00
2023-03-02T01:05:05.969Z,99.89
2023-03-02T01:07:33.255Z,99.90
2023-03-02T01:09:59.699Z,100.00
2023-03-02T01:12:26.276Z,100.00
2023-03-02T01:14:52.809Z,99.83
2023-03-02T01:17:22.198Z,100.00
2023-03-02T01:19:48.749Z,100.00
2023-03-02T01:22:15.276Z,100.00
2023-03-02T01:24:41.822Z,100.00
2023-03-02T01:27:08.476Z,100.00
2023-03-02T01:29:34.983Z,100.00
2023-03-02T01:32:02.427Z,100.00
2023-03-02T01:34:29.096Z,100.00
2023-03-02T01:36:56.051Z,100.00
2023-03-02T01:39:22.769Z,100.00
2023-03-02T01:41:51.459Z,100.00
2023-03-02T01:44:36.247Z,100.00
2023-03-02T01:47:05.105Z,100.00
2023-03-02T01:49:37.636Z,100.00
2023-03-02T01:52:04.364Z,100.00
2023-03-02T01:54:30.984Z,100.00
2023-03-02T01:57:01.990Z,100.00
2023-03-02T01:59:31.554Z,100.00
2023-03-02T02:02:01.893Z,100.00
2023-03-02T02:04:30.422Z,100.00
2023-03-02T02:07:02.217Z,100.00
2023-03-02T02:09:31.997Z,100.00
2023-03-02T02:11:58.632Z,100.00
2023-03-02T02:14:25.548Z,100.00
2023-03-02T02:16:52.583Z,100.00
2023-03-02T02:19:42.305Z,100.00
2023-03-02T02:22:10.758Z,100.00
2023-03-02T02:24:49.626Z,100.00
2023-03-02T02:27:16.218Z,100.00
2023-03-02T02:29:47.661Z,100.00
2023-03-02T02:32:23.559Z,100.00
2023-03-02T02:35:14.554Z,100.00
2023-03-02T02:37:46.531Z,100.00
2023-03-02T02:40:18.590Z,100.00
2023-03-02T02:42:49.798Z,100.00
2023-03-02T02:45:22.390Z,100.00
2023-03-02T02:47:50.281Z,100.00
2023-03-02T02:50:20.711Z,100.00
2023-03-02T02:52:53.915Z,100.00
2023-03-02T02:55:23.299Z,100.00
2023-03-02T02:57:53.551Z,100.00
2023-03-02T03:00:22.248Z,100.00
2023-03-02T03:02:54.082Z,100.00
2023-03-02T03:05:20.604Z,100.00
2023-03-02T03:07:47.270Z,100.00
2023-03-02T03:10:39.829Z,100.00
2023-03-02T03:13:09.218Z,100.00
2023-03-02T03:15:36.337Z,100.00
2023-03-02T03:18:02.864Z,100.00
2023-03-02T03:20:29.856Z,100.00
2023-03-02T03:22:59.294Z,100.00
2023-03-02T03:25:26.578Z,100.00
2023-03-02T03:27:53.109Z,100.00
2023-03-02T03:30:19.748Z,100.00
2023-03-02T03:32:46.349Z,100.00
2023-03-02T03:35:13.157Z,100.00
2023-03-02T03:37:41.237Z,100.00
2023-03-02T03:40:09.900Z,100.00
2023-03-02T03:42:38.063Z,100.00
2023-03-02T03:45:05.967Z,100.00
2023-03-02T03:47:32.449Z,100.00
2023-03-02T03:49:58.927Z,100.00
2023-03-02T03:52:31.420Z,100.00
2023-03-02T03:54:59.915Z,100.00
2023-03-02T03:57:27.825Z,100.00
2023-03-02T03:59:54.690Z,100.00
2023-03-02T04:02:21.984Z,100.00
2023-03-02T04:04:48.598Z,100.00
2023-03-02T04:07:15.211Z,100.00
2023-03-02T04:09:41.805Z,100.00
2023-03-02T04:12:09.604Z,100.00
2023-03-02T04:14:36.306Z,100.00
2023-03-02T04:17:05.412Z,100.00
2023-03-02T04:19:32.471Z,100.00
2023-03-02T04:21:59.593Z,100.00
2023-03-02T04:24:26.123Z,100.00
2023-03-02T04:26:52.783Z,100.00
2023-03-02T04:29:19.762Z,100.00
2023-03-02T04:31:46.511Z,100.00
2023-03-02T04:34:13.155Z,100.00
2023-03-02T04:36:40.318Z,100.00
2023-03-02T04:39:08.433Z,100.00
2023-03-02T04:41:35.568Z,100.00
2023-03-02T04:44:02.362Z,100.00
2023-03-02T04:46:29.152Z,100.00
2023-03-02T04:48:55.761Z,100.00
2023-03-02T04:51:25.989Z,100.00
2023-03-02T04:53:54.925Z,100.00
2023-03-02T04:56:22.045Z,100.00
2023-03-02T04:58:48.565Z,100.00
2023-03-02T05:01:16.668Z,100.00
2023-03-02T05:03:43.208Z,100.00
2023-03-02T05:06:10.596Z,100.00
2023-03-02T05:08:37.581Z,100.00
2023-03-02T05:11:04.952Z,100.00
2023-03-02T05:13:31.400Z,100.00
2023-03-02T05:15:58.499Z,100.00
2023-03-02T05:18:25.654Z,100.00
2023-03-02T05:20:53.652Z,100.00
2023-03-02T05:23:25.713Z,100.00
2023-03-02T05:25:54.672Z,100.00
2023-03-02T05:28:23.226Z,100.00
2023-03-02T05:30:50.010Z,100.00
2023-03-02T05:33:17.110Z,100.00
2023-03-02T05:35:44.394Z,100.00
2023-03-02T05:38:11.800Z,100.00
2023-03-02T05:40:39.183Z,100.00
2023-03-02T05:43:06.437Z,100.00
2023-03-02T05:45:36.178Z,100.00
2023-03-02T05:48:03.553Z,100.00
2023-03-02T05:50:30.420Z,100.00
2023-03-02T05:52:58.219Z,100.00
2023-03-02T05:55:24.814Z,100.00
2023-03-02T05:57:51.275Z,100.00
2023-03-02T06:00:18.687Z,100.00
2023-03-02T06:02:45.236Z,100.00
2023-03-02T06:05:15.228Z,100.00
2023-03-02T06:07:41.896Z,100.00
2023-03-02T06:10:10.155Z,100.00
2023-03-02T06:12:36.938Z,100.00
2023-03-02T06:15:05.517Z,100.00
2023-03-02T06:17:32.321Z,100.00
2023-03-02T06:19:58.777Z,100.00
2023-03-02T06:22:25.420Z,100.00
2023-03-02T06:24:51.971Z,100.00
2023-03-02T06:27:18.700Z,100.00
2023-03-02T06:29:45.219Z,100.00
2023-03-02T06:32:11.848Z,100.00
2023-03-02T06:34:38.423Z,100.00
2023-03-02T06:37:04.914Z,100.00
2023-03-02T06:39:31.516Z,100.00
2023-03-02T06:41:59.264Z,100.00
2023-03-02T06:44:25.764Z,100.00
2023-03-02T06:46:52.249Z,100.00
2023-03-02T06:53:09.578Z,100.00
2023-03-02T06:55:36.111Z,100.00
2023-03-02T06:58:02.532Z,100.00
2023-03-02T07:00:29.203Z,100.00
2023-03-02T07:02:56.551Z,100.00
2023-03-02T07:05:24.451Z,100.00
2023-03-02T07:07:51.020Z,100.00
2023-03-02T07:10:17.738Z,100.00
2023-03-02T07:12:44.466Z,100.00
2023-03-02T07:15:12.306Z,100.00
2023-03-02T07:17:39.769Z,100.00
2023-03-02T07:20:07.058Z,100.00
2023-03-02T07:22:33.787Z,100.00
2023-03-02T07:25:01.624Z,100.00
2023-03-02T07:28:26.531Z,100.00
2023-03-02T07:30:54.072Z,100.00
2023-03-02T07:33:21.395Z,100.00
2023-03-02T07:35:48.530Z,100.00
2023-03-02T07:38:15.123Z,100.00
2023-03-02T07:41:25.194Z,100.00
2023-03-02T07:43:51.693Z,100.00
2023-03-02T07:46:18.224Z,100.00
2023-03-02T07:48:44.756Z,100.00
2023-03-02T07:51:11.215Z,100.00
2023-03-02T07:53:38.488Z,100.00
2023-03-02T07:56:10.212Z,100.00
2023-03-02T07:58:37.571Z,100.00
2023-03-02T08:01:04.690Z,99.45
2023-03-02T08:03:31.305Z,99.60
2023-03-02T08:05:57.931Z,98.70
2023-03-02T08:08:24.548Z,98.87
2023-03-02T08:10:51.163Z,98.80
2023-03-02T08:13:17.929Z,98.73
2023-03-02T08:15:44.487Z,98.73
2023-03-02T08:18:11.005Z,98.24
2023-03-02T08:20:38.156Z,97.87
2023-03-02T08:23:04.601Z,97.11
2023-03-02T08:25:31.155Z,97.31
2023-03-02T08:27:57.653Z,96.74
2023-03-02T08:30:24.152Z,96.63
2023-03-02T08:32:50.787Z,95.92
2023-03-02T08:35:17.464Z,96.02
2023-03-02T08:37:43.993Z,95.68
2023-03-02T08:40:11.183Z,95.55
2023-03-02T08:42:37.700Z,95.53
2023-03-02T08:45:04.636Z,94.95
2023-03-02T08:47:32.585Z,95.39
2023-03-02T08:49:59.247Z,95.51
2023-03-02T08:52:25.748Z,94.95
2023-03-02T08:54:52.304Z,94.80
2023-03-02T08:57:20.404Z,94.26
2023-03-02T08:59:47.833Z,94.92
2023-03-02T09:02:14.302Z,94.90
2023-03-02T09:04:40.903Z,94.55
2023-03-02T09:07:07.493Z,93.68
2023-03-02T09:09:34.079Z,93.98
2023-03-02T09:12:00.684Z,94.33
2023-03-02T09:14:27.430Z,93.61
2023-03-02T09:16:54.452Z,94.61
2023-03-02T09:19:21.248Z,94.01
2023-03-02T09:21:47.759Z,94.49
2023-03-02T09:24:14.235Z,93.15
2023-03-02T09:26:40.882Z,94.08
2023-03-02T09:29:07.527Z,92.82
2023-03-02T09:31:36.494Z,93.43
2023-03-02T09:34:04.475Z,93.05
2023-03-02T09:36:32.782Z,93.08
2023-03-02T09:38:59.541Z,91.93
2023-03-02T09:41:40.085Z,91.34
2023-03-02T09:44:16.949Z,91.60
2023-03-02T09:46:53.962Z,90.61
2023-03-02T09:49:54.582Z,90.56
2023-03-02T09:52:30.357Z,90.70
2023-03-02T09:55:02.305Z,90.20
2023-03-02T09:57:33.851Z,89.30
2023-03-02T10:00:19.521Z,89.27
2023-03-02T10:02:51.169Z,88.98
2023-03-02T10:05:22.821Z,87.84
2023-03-02T10:07:49.785Z,87.60
2023-03-02T10:10:24.870Z,87.88
2023-03-02T10:13:00.568Z,86.84
2023-03-02T10:15:38.234Z,86.49
2023-03-02T10:18:13.890Z,85.89
2023-03-02T10:21:03.587Z,86.12
2023-03-02T10:23:33.061Z,85.21
2023-03-02T10:26:19.603Z,84.01
2023-03-02T10:28:56.870Z,84.23
2023-03-02T10:31:27.996Z,84.47
2023-03-02T10:33:55.395Z,83.08
2023-03-02T10:36:27.792Z,83.35
2023-03-02T10:38:55.627Z,82.98
2023-03-02T10:41:36.391Z,82.58
2023-03-02T10:44:07.842Z,80.55
2023-03-02T10:46:42.829Z,80.56
2023-03-02T10:49:24.991Z,80.11
2023-03-02T10:52:06.087Z,79.93
2023-03-02T10:54:34.494Z,78.47
2023-03-02T10:57:03.839Z,77.33
2023-03-02T10:59:43.575Z,77.16
2023-03-02T11:02:25.100Z,76.11
2023-03-02T11:05:10.772Z,75.74
2023-03-02T11:07:37.248Z,75.16
2023-03-02T11:10:19.101Z,74.88
2023-03-02T11:12:50.801Z,74.41
2023-03-02T11:15:25.546Z,73.93
2023-03-02T11:18:03.251Z,73.17
2023-03-02T11:20:34.939Z,74.43
2023-03-02T11:23:24.029Z,73.86
2023-03-02T11:30:25.909Z,73.04
2023-03-02T11:33:02.285Z,71.76
2023-03-02T11:35:37.779Z,72.93
2023-03-02T11:38:16.459Z,70.83
2023-03-02T11:41:12.359Z,71.42
2023-03-02T11:43:39.016Z,70.36
2023-03-02T11:46:13.835Z,69.59
2023-03-02T11:48:48.868Z,70.47
2023-03-02T11:51:26.440Z,69.97
2023-03-02T11:53:59.271Z,67.10
2023-03-02T11:56:31.263Z,66.37
2023-03-02T11:59:04.719Z,67.02
2023-03-02T12:01:35.011Z,67.56
2023-03-02T12:04:10.915Z,67.91
2023-03-02T12:06:40.946Z,69.40
2023-03-02T12:09:31.340Z,69.98
2023-03-02T12:12:32.812Z,67.57
2023-03-02T12:14:59.858Z,66.50
2023-03-02T12:17:26.347Z,65.76
2023-03-02T12:20:07.721Z,66.53
2023-03-02T12:22:35.078Z,66.99
2023-03-02T12:25:26.497Z,66.46
2023-03-02T12:27:54.929Z,65.37
2023-03-02T12:30:28.099Z,65.39
2023-03-02T12:33:11.559Z,64.84
2023-03-02T12:35:38.574Z,63.34
2023-03-02T12:38:26.756Z,65.24
2023-03-02T12:40:56.308Z,64.73
2023-03-02T12:43:28.176Z,62.28
2023-03-02T12:46:26.064Z,65.66
2023-03-02T12:49:11.571Z,64.34
2023-03-02T12:51:50.659Z,63.99
2023-03-02T12:54:19.575Z,64.49
2023-03-02T12:56:47.133Z,62.01
2023-03-02T12:59:25.780Z,61.17
2023-03-02T13:01:52.514Z,60.97
2023-03-02T13:04:25.039Z,61.71
2023-03-02T13:06:53.683Z,60.85
2023-03-02T13:09:21.665Z,58.40
2023-03-02T13:11:49.701Z,58.88
2023-03-02T13:14:24.531Z,58.97
2023-03-02T13:17:05.282Z,60.13
2023-03-02T13:19:33.044Z,58.32
2023-03-02T13:22:00.541Z,59.80
2023-03-02T13:24:34.659Z,59.20
2023-03-02T13:27:06.965Z,62.51
2023-03-02T13:29:33.900Z,63.71
2023-03-02T13:32:24.302Z,64.15
2023-03-02T13:35:02.457Z,64.24
2023-03-02T13:37:38.828Z,66.45
2023-03-02T13:40:30.796Z,65.83
2023-03-02T13:42:58.077Z,65.94
2023-03-02T13:45:26.084Z,66.92
2023-03-02T13:47:54.495Z,67.49
2023-03-02T13:50:25.778Z,67.54
2023-03-02T13:52:55.332Z,68.04
2023-03-02T13:55:22.343Z,68.03
2023-03-02T13:57:51.055Z,67.57
2023-03-02T14:00:36.332Z,66.76
2023-03-02T14:03:02.853Z,67.29
2023-03-02T14:05:35.540Z,66.62
2023-03-02T14:08:07.219Z,66.27
2023-03-02T14:10:33.711Z,67.90
2023-03-02T14:13:06.118Z,67.42
2023-03-02T14:15:32.780Z,67.50
2023-03-02T14:18:00.444Z,68.80
2023-03-02T14:20:26.969Z,69.63
2023-03-02T14:22:53.451Z,69.12
2023-03-02T14:25:20.611Z,69.10
2023-03-02T14:27:47.496Z,68.22
2023-03-02T14:30:20.466Z,69.21
2023-03-02T14:32:47.244Z,69.32
2023-03-02T14:35:16.580Z,67.67
2023-03-02T14:37:46.884Z,68.73
2023-03-02T14:40:28.406Z,68.40
2023-03-02T14:42:55.069Z,68.22
2023-03-02T14:45:22.006Z,69.06
2023-03-02T14:47:48.983Z,68.75
2023-03-02T14:50:16.921Z,68.92
2023-03-02T14:52:48.080Z,69.57
2023-03-02T14:55:23.710Z,69.48
2023-03-02T14:57:58.403Z,69.49
2023-03-02T15:00:25.868Z,69.89
2023-03-02T15:02:52.549Z,70.20
2023-03-02T15:05:19.648Z,70.46
2023-03-02T15:07:46.651Z,70.33
2023-03-02T15:10:19.860Z,69.83
2023-03-02T15:12:46.714Z,70.73
2023-03-02T15:15:13.634Z,70.53
2023-03-02T15:17:40.896Z,70.16
2023-03-02T15:20:10.012Z,70.53
2023-03-02T15:22:36.492Z,71.04
2023-03-02T15:25:03.048Z,70.58
2023-03-02T15:27:29.608Z,70.66
2023-03-02T15:29:57.020Z,70.11
2023-03-02T15:32:26.664Z,71.38
2023-03-02T15:34:56.000Z,71.90
2023-03-02T15:37:22.669Z,71.46
2023-03-02T15:39:54.272Z,71.47
2023-03-02T15:42:20.778Z,71.61
2023-03-02T15:44:47.408Z,72.18
2023-03-02T15:47:13.962Z,72.04
2023-03-02T15:49:40.601Z,71.89
2023-03-02T15:52:07.156Z,72.07
2023-03-02T15:54:33.663Z,71.96
2023-03-02T15:57:00.144Z,72.17
2023-03-02T15:59:28.816Z,72.41
2023-03-02T16:01:59.939Z,72.16
2023-03-02T16:04:27.770Z,72.24
2023-03-02T16:06:55.073Z,72.57
2023-03-02T16:09:22.336Z,72.46
2023-03-02T16:11:49.771Z,71.75
2023-03-02T16:14:16.377Z,71.76
2023-03-02T16:16:43.711Z,72.40
2023-03-02T16:19:17.725Z,72.74
2023-03-02T16:21:45.666Z,73.15
2023-03-02T16:24:13.099Z,73.21
2023-03-02T16:26:39.642Z,73.87
2023-03-02T16:29:08.120Z,73.88
2023-03-02T16:32:10.005Z,74.23
2023-03-02T16:35:33.219Z,74.53
2023-03-02T16:38:00.435Z,75.90
2023-03-02T16:40:27.728Z,76.70
2023-03-02T16:42:54.557Z,77.12
2023-03-02T16:45:52.491Z,77.56
2023-03-02T16:48:37.284Z,77.59
2023-03-02T16:51:04.882Z,78.66
2023-03-02T16:53:31.453Z,78.32
2023-03-02T16:55:57.929Z,78.09
2023-03-02T16:58:25.035Z,78.49
2023-03-02T17:00:51.655Z,78.42
2023-03-02T17:03:20.431Z,78.84
2023-03-02T17:05:46.978Z,79.27
2023-03-02T17:08:14.823Z,79.47
2023-03-02T17:10:42.312Z,80.31
2023-03-02T17:13:09.726Z,80.88
2023-03-02T17:15:36.295Z,80.69
2023-03-02T17:18:02.879Z,80.71
2023-03-02T17:20:29.416Z,80.99
2023-03-02T17:22:55.889Z,81.47
2023-03-02T17:25:22.932Z,82.08
2023-03-02T17:27:49.460Z,82.07
2023-03-02T17:30:16.468Z,81.93
2023-03-02T17:32:43.162Z,81.94
2023-03-02T17:35:12.134Z,82.64
2023-03-02T17:37:38.661Z,82.94
2023-03-02T17:40:06.665Z,82.77
2023-03-02T17:42:33.249Z,82.88
2023-03-02T17:45:00.021Z,83.18
2023-03-02T17:47:26.672Z,83.65
2023-03-02T17:49:53.215Z,83.91
2023-03-02T17:52:19.935Z,83.60
2023-03-02T17:54:46.509Z,84.10
2023-03-02T17:57:13.186Z,83.83
2023-03-02T17:59:39.672Z,83.58
2023-03-02T18:02:06.122Z,83.84
2023-03-02T18:04:32.671Z,84.45
2023-03-02T18:06:59.170Z,84.23
2023-03-02T18:09:25.701Z,84.19
2023-03-02T18:11:52.257Z,84.61
2023-03-02T18:14:20.424Z,84.84
2023-03-02T18:16:47.254Z,85.65
2023-03-02T18:19:13.844Z,85.23
2023-03-02T18:21:42.057Z,85.55
2023-03-02T18:24:09.481Z,85.36
2023-03-02T18:26:36.357Z,86.06
2023-03-02T18:33:11.023Z,85.79
2023-03-02T18:35:38.284Z,85.84
2023-03-02T18:38:05.078Z,86.09
2023-03-02T18:40:31.642Z,86.44
2023-03-02T18:42:58.350Z,85.98
2023-03-02T18:45:28.570Z,86.10
2023-03-02T18:47:55.858Z,86.68
2023-03-02T18:50:23.229Z,86.53
2023-03-02T18:52:52.852Z,86.65
2023-03-02T18:55:24.414Z,86.10
2023-03-02T18:57:53.798Z,86.94
2023-03-02T19:00:26.681Z,87.06
2023-03-02T19:02:56.816Z,87.38
2023-03-02T19:05:25.186Z,87.67
2023-03-02T19:07:51.725Z,87.98
2023-03-02T19:10:20.577Z,88.11
2023-03-02T19:12:48.048Z,88.11
2023-03-02T19:15:14.587Z,88.50
2023-03-02T19:17:45.872Z,88.84
2023-03-02T19:20:16.832Z,89.19
2023-03-02T19:22:43.355Z,89.39
2023-03-02T19:25:10.587Z,89.84
2023-03-02T19:27:37.747Z,89.65
2023-03-02T19:30:06.354Z,89.98
2023-03-02T19:32:33.188Z,90.07
2023-03-02T19:35:01.217Z,90.45
2023-03-02T19:37:27.693Z,90.84
2023-03-02T19:39:54.347Z,90.81
2023-03-02T19:42:20.871Z,91.04
2023-03-02T19:44:47.408Z,91.10
2023-03-02T19:47:13.976Z,91.45
2023-03-02T19:49:40.560Z,91.76
2023-03-02T19:52:07.026Z,92.18
2023-03-02T19:54:33.547Z,92.84
2023-03-02T19:57:00.160Z,92.37
2023-03-02T19:59:27.354Z,92.99
2023-03-02T20:01:55.425Z,93.00
2023-03-02T20:04:22.059Z,92.76
2023-03-02T20:06:48.584Z,93.05
2023-03-02T20:09:19.653Z,92.98
2023-03-02T20:11:47.401Z,93.28
2023-03-02T20:14:27.588Z,93.33
2023-03-02T20:16:59.632Z,93.59
2023-03-02T20:19:26.123Z,93.95
2023-03-02T20:21:52.564Z,94.72
2023-03-02T20:24:19.120Z,94.62
2023-03-02T20:26:45.865Z,95.03
2023-03-02T20:29:12.639Z,94.58
2023-03-02T20:31:39.749Z,94.73
2023-03-02T20:34:10.980Z,95.39
2023-03-02T20:36:38.048Z,96.38
2023-03-02T20:39:10.402Z,96.11
2023-03-02T20:41:37.015Z,96.97
2023-03-02T20:44:05.418Z,97.13
2023-03-02T20:46:36.112Z,97.92
2023-03-02T20:49:04.564Z,97.79
2023-03-02T20:51:31.279Z,98.03
2023-03-02T20:53:58.565Z,98.30
2023-03-02T20:56:25.570Z,98.94
2023-03-02T20:58:52.097Z,98.73
2023-03-02T21:01:19.829Z,99.16
2023-03-02T21:03:46.797Z,99.55
2023-03-02T21:06:15.255Z,99.60
2023-03-02T21:08:42.845Z,99.95
2023-03-02T21:11:12.739Z,100.00
2023-03-02T21:13:39.388Z,100.00
2023-03-02T21:16:08.557Z,100.00
2023-03-02T21:18:35.481Z,100.00
2023-03-02T21:21:03.132Z,100.00
2023-03-02T21:23:30.152Z,100.00
2023-03-02T21:25:57.201Z,100.00
2023-03-02T21:28:23.769Z,100.00
2023-03-02T21:30:50.579Z,100.00
2023-03-02T21:33:17.123Z,100.00
2023-03-02T21:35:46.331Z,100.00
2023-03-02T21:38:13.160Z,100.00
2023-03-02T21:40:43.092Z,100.00
2023-03-02T21:43:09.735Z,100.00
2023-03-02T21:45:37.367Z,100.00
2023-03-02T21:48:05.198Z,100.00
2023-03-02T21:50:35.662Z,100.00
2023-03-02T21:53:02.386Z,100.00
2023-03-02T21:55:30.285Z,100.00
2023-03-02T21:57:57.569Z,100.00
2023-03-02T22:00:30.742Z,100.00
2023-03-02T22:02:57.176Z,100.00
2023-03-02T22:05:23.694Z,100.00
2023-03-02T22:07:50.414Z,100.00
2023-03-02T22:10:42.554Z,100.00
2023-03-02T22:13:15.346Z,100.00
2023-03-02T22:15:41.869Z,100.00
2023-03-02T22:18:17.058Z,100.00
2023-03-02T22:20:46.086Z,100.00
2023-03-02T22:23:21.420Z,100.00
2023-03-02T22:25:53.675Z,100.00
2023-03-02T22:28:23.387Z,100.00
2023-03-02T22:30:51.544Z,100.00
2023-03-02T22:33:23.783Z,100.00
2023-03-02T22:35:53.140Z,100.00
2023-03-02T22:38:27.938Z,100.00
2023-03-02T22:40:55.431Z,100.00
2023-03-02T22:43:33.112Z,100.00
2023-03-02T22:46:10.711Z,100.00
2023-03-02T22:48:38.203Z,100.00
2023-03-02T22:51:15.378Z,100.00
2023-03-02T22:53:53.169Z,100.00
2023-03-02T22:56:34.152Z,100.00
2023-03-02T22:59:16.956Z,100.00
2023-03-02T23:01:45.012Z,100.00
2023-03-02T23:04:17.646Z,100.00
2023-03-02T23:06:47.723Z,100.00
2023-03-02T23:09:18.232Z,100.00
2023-03-02T23:11:45.004Z,100.00
2023-03-02T23:14:21.153Z,100.00
2023-03-02T23:16:56.948Z,100.00
2023-03-02T23:19:25.660Z,100.00
2023-03-02T23:21:52.111Z,100.00
2023-03-02T23:24:20.731Z,100.00
2023-03-02T23:26:49.407Z,100.00
2023-03-02T23:29:16.746Z,100.00
2023-03-02T23:31:43.865Z,100.00
2023-03-02T23:34:11.384Z,100.00
2023-03-02T23:36:38.129Z,100.00
2023-03-02T23:39:05.676Z,100.00
2023-03-02T23:41:32.322Z,100.00
2023-03-02T23:43:59.008Z,100.00
2023-03-02T23:46:25.814Z,100.00
2023-03-02T23:48:53.102Z,100.00
2023-03-02T23:51:19.779Z,100.00
2023-03-02T23:53:47.148Z,100.00
2023-03-02T23:56:13.651Z,100.00
2023-03-02T23:58:40.519Z,100.00
